createdAt,value
2018-08-14T00:00:26.690Z,1003.07
2018-08-14T00:02:19.471Z,1003.05
2018-08-14T00:03:19.403Z,1003.06
2018-08-14T00:05:12.179Z,1003.07
2018-08-14T00:06:12.101Z,1003.02
2018-08-14T00:08:04.875Z,1003.02
2018-08-14T00:09:04.810Z,1003.06
2018-08-14T00:10:57.686Z,1003.05
2018-08-14T00:11:57.600Z,1003.06
2018-08-14T00:13:50.409Z,1003.07
2018-08-14T00:14:50.341Z,1003.07
2018-08-14T00:16:43.112Z,1003.10
2018-08-14T00:17:43.047Z,1003.03
2018-08-14T00:19:35.843Z,1003.09
2018-08-14T00:20:35.773Z,1003.09
2018-08-14T00:22:28.563Z,1003.09
2018-08-14T00:23:28.502Z,1003.09
2018-08-14T00:25:21.296Z,1003.10
2018-08-14T00:26:21.218Z,1003.13
2018-08-14T00:28:13.996Z,1003.05
2018-08-14T00:29:13.934Z,1003.11
2018-08-14T00:31:06.745Z,1003.07
2018-08-14T00:32:06.675Z,1003.10
2018-08-14T00:33:59.456Z,1003.15
2018-08-14T00:34:59.386Z,1003.17
2018-08-14T00:36:52.183Z,1003.16
2018-08-14T00:37:52.117Z,1003.18
2018-08-14T00:39:44.901Z,1003.18
2018-08-14T00:40:44.830Z,1003.19
2018-08-14T00:42:37.600Z,1003.26
2018-08-14T00:43:37.525Z,1003.24
2018-08-14T00:45:30.330Z,1003.26
2018-08-14T00:46:30.258Z,1003.24
2018-08-14T00:48:23.026Z,1003.21
2018-08-14T00:49:22.971Z,1003.23
2018-08-14T00:51:15.760Z,1003.22
2018-08-14T00:52:15.686Z,1003.21
2018-08-14T00:54:08.467Z,1003.22
2018-08-14T00:55:08.414Z,1003.18
2018-08-14T00:57:01.187Z,1003.18
2018-08-14T00:58:01.111Z,1003.22
2018-08-14T00:59:53.916Z,1003.28
2018-08-14T01:00:53.839Z,1003.24
2018-08-14T01:02:46.666Z,1003.26
2018-08-14T01:03:46.587Z,1003.27
2018-08-14T01:05:39.382Z,1003.24
2018-08-14T01:06:39.305Z,1003.26
2018-08-14T01:08:32.063Z,1003.21
2018-08-14T01:09:32.004Z,1003.26
2018-08-14T01:11:24.799Z,1003.26
2018-08-14T01:12:24.727Z,1003.24
2018-08-14T01:14:17.511Z,1003.27
2018-08-14T01:15:17.449Z,1003.25
2018-08-14T01:17:10.242Z,1003.23
2018-08-14T01:18:10.173Z,1003.25
2018-08-14T01:20:02.961Z,1003.26
2018-08-14T01:21:02.894Z,1003.28
2018-08-14T01:22:55.667Z,1003.28
2018-08-14T01:23:55.599Z,1003.29
2018-08-14T01:25:48.390Z,1003.24
2018-08-14T01:26:48.305Z,1003.24
2018-08-14T01:28:41.150Z,1003.28
2018-08-14T01:29:41.017Z,1003.33
2018-08-14T01:31:33.804Z,1003.33
2018-08-14T01:32:33.737Z,1003.34
2018-08-14T01:34:26.511Z,1003.28
2018-08-14T01:35:26.444Z,1003.29
2018-08-14T01:37:19.236Z,1003.29
2018-08-14T01:38:19.162Z,1003.30
2018-08-14T01:40:11.962Z,1003.29
2018-08-14T01:41:11.884Z,1003.31
2018-08-14T01:43:04.671Z,1003.34
2018-08-14T01:44:04.604Z,1003.34
2018-08-14T01:45:57.444Z,1003.33
2018-08-14T01:46:57.316Z,1003.35
2018-08-14T01:48:50.095Z,1003.40
2018-08-14T01:49:50.036Z,1003.39
2018-08-14T01:51:42.822Z,1003.41
2018-08-14T01:52:42.747Z,1003.44
2018-08-14T01:54:35.525Z,1003.48
2018-08-14T01:55:35.468Z,1003.44
2018-08-14T01:57:28.333Z,1003.48
2018-08-14T01:58:28.233Z,1003.48
2018-08-14T02:00:21.021Z,1003.42
2018-08-14T02:01:20.949Z,1003.47
2018-08-14T02:03:13.728Z,1003.51
2018-08-14T02:04:13.673Z,1003.50
2018-08-14T02:06:06.459Z,1003.55
2018-08-14T02:07:06.384Z,1003.57
2018-08-14T02:08:59.177Z,1003.54
2018-08-14T02:09:59.111Z,1003.56
2018-08-14T02:11:51.937Z,1003.58
2018-08-14T02:12:51.849Z,1003.57
2018-08-14T02:14:44.632Z,1003.54
2018-08-14T02:15:44.548Z,1003.56
2018-08-14T02:17:37.350Z,1003.58
2018-08-14T02:18:37.278Z,1003.57
2018-08-14T02:20:30.113Z,1003.56
2018-08-14T02:21:30.024Z,1003.54
2018-08-14T02:23:22.807Z,1003.54
2018-08-14T02:24:22.756Z,1003.58
2018-08-14T02:26:15.541Z,1003.56
2018-08-14T02:27:15.468Z,1003.58
2018-08-14T02:29:08.249Z,1003.58
2018-08-14T02:30:08.169Z,1003.66
2018-08-14T02:32:00.968Z,1003.58
2018-08-14T02:33:00.875Z,1003.59
2018-08-14T02:34:53.648Z,1003.58
2018-08-14T02:35:53.603Z,1003.61
2018-08-14T02:37:46.388Z,1003.64
2018-08-14T02:38:46.308Z,1003.63
2018-08-14T02:40:39.092Z,1003.62
2018-08-14T02:41:39.011Z,1003.59
2018-08-14T02:43:31.791Z,1003.58
2018-08-14T02:44:31.730Z,1003.62
2018-08-14T02:46:24.532Z,1003.64
2018-08-14T02:47:24.454Z,1003.64
2018-08-14T02:49:17.229Z,1003.64
2018-08-14T02:50:17.169Z,1003.65
2018-08-14T02:52:09.954Z,1003.69
2018-08-14T02:53:09.878Z,1003.67
2018-08-14T02:55:02.664Z,1003.73
2018-08-14T02:56:02.611Z,1003.73
2018-08-14T02:57:55.431Z,1003.77
2018-08-14T02:58:55.331Z,1003.82
2018-08-14T03:00:48.109Z,1003.77
2018-08-14T03:01:48.037Z,1003.83
2018-08-14T03:03:40.830Z,1003.82
2018-08-14T03:04:40.767Z,1003.90
2018-08-14T03:06:33.545Z,1003.90
2018-08-14T03:07:33.472Z,1003.85
2018-08-14T03:09:26.337Z,1003.86
2018-08-14T03:10:26.204Z,1003.89
2018-08-14T03:12:18.999Z,1003.87
2018-08-14T03:13:18.914Z,1003.87
2018-08-14T03:15:11.726Z,1003.87
2018-08-14T03:16:11.666Z,1003.86
2018-08-14T03:18:04.485Z,1003.87
2018-08-14T03:19:04.392Z,1003.89
2018-08-14T03:20:57.229Z,1003.90
2018-08-14T03:21:57.108Z,1003.92
2018-08-14T03:23:49.882Z,1003.92
2018-08-14T03:24:49.821Z,1003.89
2018-08-14T03:26:42.671Z,1003.90
2018-08-14T03:27:42.533Z,1003.91
2018-08-14T03:29:35.321Z,1003.87
2018-08-14T03:30:35.259Z,1003.89
2018-08-14T03:32:28.173Z,1003.83
2018-08-14T03:33:28.097Z,1003.84
2018-08-14T03:35:20.877Z,1003.84
2018-08-14T03:36:20.825Z,1003.89
2018-08-14T03:38:13.603Z,1003.89
2018-08-14T03:39:13.532Z,1003.94
2018-08-14T03:41:06.378Z,1003.98
2018-08-14T03:42:06.243Z,1003.97
2018-08-14T03:43:59.069Z,1004.03
2018-08-14T03:44:58.993Z,1004.04
2018-08-14T03:46:51.783Z,1004.03
2018-08-14T03:47:51.711Z,1004.05
2018-08-14T03:49:44.521Z,1004.03
2018-08-14T03:50:44.463Z,1004.08
2018-08-14T03:52:37.234Z,1004.13
2018-08-14T03:53:37.178Z,1004.13
2018-08-14T03:55:29.945Z,1004.12
2018-08-14T03:56:29.936Z,1004.12
2018-08-14T03:58:23.530Z,1004.13
2018-08-14T03:59:23.458Z,1004.10
2018-08-14T04:01:16.243Z,1004.10
2018-08-14T04:02:16.182Z,1004.14
2018-08-14T04:04:08.963Z,1004.12
2018-08-14T04:05:08.894Z,1004.13
2018-08-14T04:07:01.690Z,1004.13
2018-08-14T04:08:01.609Z,1004.12
2018-08-14T04:09:54.391Z,1004.12
2018-08-14T04:10:54.338Z,1004.15
2018-08-14T04:12:47.128Z,1004.16
2018-08-14T04:13:47.039Z,1004.17
2018-08-14T04:15:39.808Z,1004.19
2018-08-14T04:16:39.753Z,1004.20
2018-08-14T04:18:32.610Z,1004.25
2018-08-14T04:19:32.532Z,1004.26
2018-08-14T04:21:25.331Z,1004.29
2018-08-14T04:22:25.262Z,1004.32
2018-08-14T04:24:18.076Z,1004.32
2018-08-14T04:25:17.987Z,1004.39
2018-08-14T04:27:10.829Z,1004.39
2018-08-14T04:28:10.741Z,1004.40
2018-08-14T04:30:03.513Z,1004.42
2018-08-14T04:31:03.447Z,1004.43
2018-08-14T04:32:56.296Z,1004.45
2018-08-14T04:33:56.218Z,1004.46
2018-08-14T04:35:48.997Z,1004.45
2018-08-14T04:36:48.932Z,1004.43
2018-08-14T04:38:41.785Z,1004.49
2018-08-14T04:39:41.656Z,1004.45
2018-08-14T04:41:34.499Z,1004.48
2018-08-14T04:42:34.400Z,1004.51
2018-08-14T04:44:27.204Z,1004.59
2018-08-14T04:45:27.129Z,1004.50
2018-08-14T04:47:19.944Z,1004.56
2018-08-14T04:48:19.851Z,1004.57
2018-08-14T04:50:12.678Z,1004.59
2018-08-14T04:51:12.564Z,1004.58
2018-08-14T04:53:05.468Z,1004.60
2018-08-14T04:54:05.398Z,1004.61
2018-08-14T04:55:58.336Z,1004.63
2018-08-14T04:56:58.263Z,1004.65
2018-08-14T04:58:51.151Z,1004.68
2018-08-14T04:59:51.063Z,1004.65
2018-08-14T05:01:43.871Z,1004.68
2018-08-14T05:02:43.800Z,1004.70
2018-08-14T05:04:36.622Z,1004.70
2018-08-14T05:05:36.565Z,1004.66
2018-08-14T05:07:29.383Z,1004.67
2018-08-14T05:08:29.255Z,1004.69
2018-08-14T05:10:22.014Z,1004.73
2018-08-14T05:11:21.944Z,1004.79
2018-08-14T05:13:14.817Z,1004.77
2018-08-14T05:14:14.678Z,1004.80
2018-08-14T05:16:07.540Z,1004.74
2018-08-14T05:17:07.466Z,1004.75
2018-08-14T05:19:00.255Z,1004.80
2018-08-14T05:20:00.176Z,1004.83
2018-08-14T05:21:52.967Z,1004.81
2018-08-14T05:22:52.896Z,1004.81
2018-08-14T05:24:45.719Z,1004.77
2018-08-14T05:25:45.620Z,1004.81
2018-08-14T05:27:38.473Z,1004.87
2018-08-14T05:28:38.359Z,1004.86
2018-08-14T05:30:31.258Z,1004.89
2018-08-14T05:31:31.144Z,1004.85
2018-08-14T05:33:23.965Z,1004.86
2018-08-14T05:34:23.809Z,1004.87
2018-08-14T05:36:16.614Z,1004.89
2018-08-14T05:37:16.536Z,1004.91
2018-08-14T05:39:09.366Z,1004.92
2018-08-14T05:40:09.308Z,1004.97
2018-08-14T05:42:02.096Z,1004.97
2018-08-14T05:43:02.004Z,1005.01
2018-08-14T05:44:54.832Z,1005.06
2018-08-14T05:45:54.770Z,1005.08
2018-08-14T05:47:47.595Z,1005.11
2018-08-14T05:48:47.515Z,1005.14
2018-08-14T05:50:40.281Z,1005.12
2018-08-14T05:51:40.225Z,1005.15
2018-08-14T05:53:33.127Z,1005.21
2018-08-14T05:54:33.055Z,1005.22
2018-08-14T05:56:25.844Z,1005.27
2018-08-14T05:57:25.783Z,1005.19
2018-08-14T05:59:18.554Z,1005.28
2018-08-14T06:00:18.496Z,1005.25
2018-08-14T06:02:11.291Z,1005.28
2018-08-14T06:03:11.532Z,1005.20
2018-08-14T06:05:04.199Z,1005.19
2018-08-14T06:06:03.969Z,1005.25
2018-08-14T06:07:56.776Z,1005.33
2018-08-14T06:08:56.726Z,1005.31
2018-08-14T06:10:49.570Z,1005.35
2018-08-14T06:11:49.452Z,1005.23
2018-08-14T06:13:42.309Z,1005.49
2018-08-14T06:14:42.246Z,1005.42
2018-08-14T06:16:35.125Z,1005.43
2018-08-14T06:17:34.990Z,1005.41
2018-08-14T06:19:27.808Z,1005.33
2018-08-14T06:20:27.729Z,1005.33
2018-08-14T06:22:20.558Z,1005.41
2018-08-14T06:23:20.492Z,1005.43
2018-08-14T06:25:13.362Z,1005.46
2018-08-14T06:26:13.249Z,1005.45
2018-08-14T06:28:06.046Z,1005.43
2018-08-14T06:29:05.975Z,1005.41
2018-08-14T06:30:58.781Z,1005.38
2018-08-14T06:31:58.714Z,1005.42
2018-08-14T06:33:51.513Z,1005.43
2018-08-14T06:34:51.459Z,1005.45
2018-08-14T06:36:44.260Z,1005.53
2018-08-14T06:37:44.227Z,1005.53
2018-08-14T06:39:37.022Z,1005.57
2018-08-14T06:40:36.952Z,1005.49
2018-08-14T06:42:29.751Z,1005.59
2018-08-14T06:43:29.696Z,1005.64
2018-08-14T06:45:22.579Z,1005.47
2018-08-14T06:46:22.496Z,1005.60
2018-08-14T06:48:15.320Z,1005.61
2018-08-14T06:49:15.240Z,1005.73
2018-08-14T06:51:08.071Z,1006.12
2018-08-14T06:52:08.011Z,1006.14
2018-08-14T06:54:01.007Z,1006.68
2018-08-14T06:55:00.859Z,1006.25
2018-08-14T06:56:53.664Z,1005.86
2018-08-14T06:57:53.618Z,1005.76
2018-08-14T06:59:46.408Z,1005.64
2018-08-14T07:00:46.335Z,1005.73
2018-08-14T07:02:39.183Z,1005.72
2018-08-14T07:03:39.105Z,1005.77
2018-08-14T07:05:31.926Z,1005.79
2018-08-14T07:06:31.847Z,1005.96
2018-08-14T07:08:24.656Z,1005.73
2018-08-14T07:09:24.590Z,1005.82
2018-08-14T07:11:17.395Z,1005.80
2018-08-14T07:12:17.334Z,1005.59
2018-08-14T07:14:10.139Z,1005.88
2018-08-14T07:15:10.077Z,1005.91
2018-08-14T07:17:02.875Z,1005.96
2018-08-14T07:18:02.825Z,1005.80
2018-08-14T07:19:55.631Z,1005.65
2018-08-14T07:20:55.621Z,1005.69
2018-08-14T07:22:48.372Z,1006.11
2018-08-14T07:23:48.318Z,1005.88
2018-08-14T07:25:41.121Z,1006.08
2018-08-14T07:26:41.056Z,1005.75
2018-08-14T07:28:33.884Z,1005.71
2018-08-14T07:29:33.814Z,1005.75
2018-08-14T07:31:26.607Z,1006.01
2018-08-14T07:32:26.554Z,1005.80
2018-08-14T07:34:19.854Z,1006.09
2018-08-14T07:35:19.790Z,1006.09
2018-08-14T07:37:12.570Z,1005.74
2018-08-14T07:38:12.517Z,1006.13
2018-08-14T07:40:05.342Z,1006.05
2018-08-14T07:41:05.273Z,1005.99
2018-08-14T07:42:58.106Z,1005.84
2018-08-14T07:43:58.054Z,1005.76
2018-08-14T07:45:50.867Z,1005.75
2018-08-14T07:46:50.796Z,1005.76
2018-08-14T07:48:43.602Z,1005.85
2018-08-14T07:49:43.523Z,1005.83
2018-08-14T07:51:36.350Z,1006.05
2018-08-14T07:52:36.284Z,1005.85
2018-08-14T07:54:29.071Z,1005.86
2018-08-14T07:55:29.006Z,1005.83
2018-08-14T07:57:21.791Z,1005.91
2018-08-14T07:58:21.735Z,1005.90
2018-08-14T08:00:14.555Z,1005.84
2018-08-14T08:01:14.487Z,1005.91
2018-08-14T08:03:07.360Z,1005.97
2018-08-14T08:04:07.283Z,1005.85
2018-08-14T08:06:00.164Z,1005.88
2018-08-14T08:07:00.067Z,1005.88
2018-08-14T08:08:52.875Z,1005.90
2018-08-14T08:09:52.796Z,1005.90
2018-08-14T08:11:45.615Z,1005.93
2018-08-14T08:12:45.545Z,1005.93
2018-08-14T08:14:38.348Z,1006.02
2018-08-14T08:15:38.266Z,1005.90
2018-08-14T08:17:31.451Z,1005.99
2018-08-14T08:18:31.423Z,1005.94
2018-08-14T08:20:24.178Z,1005.91
2018-08-14T08:21:24.104Z,1006.03
2018-08-14T08:23:16.890Z,1005.93
2018-08-14T08:24:16.827Z,1006.00
2018-08-14T08:26:09.693Z,1005.91
2018-08-14T08:27:09.592Z,1005.93
2018-08-14T08:29:02.409Z,1006.10
2018-08-14T08:30:02.326Z,1005.93
2018-08-14T08:31:55.138Z,1005.99
2018-08-14T08:32:55.068Z,1006.14
2018-08-14T08:34:47.896Z,1006.01
2018-08-14T08:35:47.835Z,1006.06
2018-08-14T08:37:40.606Z,1005.99
2018-08-14T08:38:40.546Z,1006.00
2018-08-14T08:40:33.360Z,1006.01
2018-08-14T08:41:33.284Z,1005.98
2018-08-14T08:43:26.081Z,1005.97
2018-08-14T08:44:26.024Z,1005.99
2018-08-14T08:46:18.846Z,1005.94
2018-08-14T08:47:18.747Z,1006.01
2018-08-14T08:49:11.541Z,1005.97
2018-08-14T08:50:11.480Z,1005.98
2018-08-14T08:52:04.297Z,1005.99
2018-08-14T08:53:04.218Z,1006.04
2018-08-14T08:54:57.029Z,1006.01
2018-08-14T08:55:56.950Z,1006.03
2018-08-14T08:57:49.749Z,1006.06
2018-08-14T08:58:49.694Z,1006.08
2018-08-14T09:00:42.524Z,1006.03
2018-08-14T09:01:42.449Z,1006.07
2018-08-14T09:03:35.280Z,1005.97
2018-08-14T09:04:35.199Z,1005.94
2018-08-14T09:06:28.041Z,1006.01
2018-08-14T09:07:27.968Z,1006.12
2018-08-14T09:09:20.765Z,1006.04
2018-08-14T09:10:20.697Z,1006.03
2018-08-14T09:12:13.495Z,1006.09
2018-08-14T09:13:13.435Z,1006.05
2018-08-14T09:15:06.286Z,1006.04
2018-08-14T09:16:06.171Z,1006.04
2018-08-14T09:17:58.970Z,1006.01
2018-08-14T09:18:58.913Z,1006.07
2018-08-14T09:20:51.812Z,1006.11
2018-08-14T09:21:51.719Z,1006.14
2018-08-14T09:23:44.702Z,1006.04
2018-08-14T09:24:44.646Z,1006.15
2018-08-14T09:26:37.459Z,1006.08
2018-08-14T09:27:37.395Z,1006.09
2018-08-14T09:29:30.203Z,1006.08
2018-08-14T09:30:30.142Z,1006.05
2018-08-14T09:32:22.960Z,1005.98
2018-08-14T09:33:22.889Z,1005.93
2018-08-14T09:35:15.720Z,1005.98
2018-08-14T09:36:15.659Z,1005.97
2018-08-14T09:38:08.613Z,1006.13
2018-08-14T09:39:08.460Z,1006.10
2018-08-14T09:41:01.321Z,1006.04
2018-08-14T09:42:01.280Z,1006.08
2018-08-14T09:43:54.033Z,1006.10
2018-08-14T09:44:53.969Z,1006.09
2018-08-14T09:46:46.812Z,1006.13
2018-08-14T09:47:46.820Z,1006.16
2018-08-14T09:49:39.863Z,1006.01
2018-08-14T09:50:39.810Z,1006.05
2018-08-14T09:52:32.655Z,1006.04
2018-08-14T09:53:32.573Z,1006.02
2018-08-14T09:55:25.367Z,1006.00
2018-08-14T09:56:25.310Z,1005.94
2018-08-14T09:58:18.119Z,1006.05
2018-08-14T09:59:18.050Z,1006.08
2018-08-14T10:01:10.931Z,1006.03
2018-08-14T10:02:10.870Z,1006.04
2018-08-14T10:04:03.654Z,1006.03
2018-08-14T10:05:03.594Z,1006.03
2018-08-14T10:06:56.402Z,1006.01
2018-08-14T10:07:56.323Z,1006.06
2018-08-14T10:09:49.130Z,1006.04
2018-08-14T10:10:49.079Z,1006.10
2018-08-14T10:12:41.896Z,1006.06
2018-08-14T10:13:41.819Z,1006.09
2018-08-14T10:15:34.632Z,1006.00
2018-08-14T10:16:34.563Z,1006.02
2018-08-14T10:18:27.378Z,1005.90
2018-08-14T10:19:27.301Z,1005.99
2018-08-14T10:21:20.120Z,1005.95
2018-08-14T10:22:20.031Z,1006.01
2018-08-14T10:24:12.850Z,1006.00
2018-08-14T10:25:12.775Z,1005.90
2018-08-14T10:27:05.591Z,1005.98
2018-08-14T10:28:05.579Z,1005.94
2018-08-14T10:29:58.363Z,1005.96
2018-08-14T10:30:58.252Z,1005.95
2018-08-14T10:32:51.075Z,1005.93
2018-08-14T10:33:51.001Z,1006.04
2018-08-14T10:35:43.943Z,1005.96
2018-08-14T10:36:43.735Z,1006.04
2018-08-14T10:38:36.583Z,1005.94
2018-08-14T10:39:36.545Z,1005.95
2018-08-14T10:41:29.342Z,1006.01
2018-08-14T10:42:29.268Z,1005.99
2018-08-14T10:44:22.131Z,1005.97
2018-08-14T10:45:22.065Z,1005.99
2018-08-14T10:47:14.895Z,1005.99
2018-08-14T10:48:14.833Z,1006.01
2018-08-14T10:50:07.696Z,1005.97
2018-08-14T10:51:07.574Z,1005.95
2018-08-14T10:53:00.387Z,1005.96
2018-08-14T10:54:00.329Z,1005.96
2018-08-14T10:55:53.109Z,1005.94
2018-08-14T10:56:53.069Z,1005.96
2018-08-14T10:58:45.921Z,1005.91
2018-08-14T10:59:45.803Z,1005.97
2018-08-14T11:01:38.639Z,1005.91
2018-08-14T11:02:38.558Z,1005.91
2018-08-14T11:04:31.412Z,1005.93
2018-08-14T11:05:31.295Z,1005.97
2018-08-14T11:07:24.111Z,1006.00
2018-08-14T11:08:24.042Z,1006.00
2018-08-14T11:10:16.880Z,1005.98
2018-08-14T11:11:16.793Z,1006.08
2018-08-14T11:13:09.611Z,1006.11
2018-08-14T11:14:09.542Z,1006.10
2018-08-14T11:16:02.357Z,1006.10
2018-08-14T11:17:02.280Z,1006.10
2018-08-14T11:18:55.101Z,1006.14
2018-08-14T11:19:55.033Z,1006.16
2018-08-14T11:21:47.828Z,1006.13
2018-08-14T11:22:47.756Z,1006.05
2018-08-14T11:24:40.563Z,1006.03
2018-08-14T11:25:40.485Z,1006.08
2018-08-14T11:27:33.295Z,1006.09
2018-08-14T11:28:33.216Z,1006.07
2018-08-14T11:30:26.045Z,1006.05
2018-08-14T11:31:25.946Z,1006.09
2018-08-14T11:33:18.810Z,1006.02
2018-08-14T11:34:18.677Z,1005.99
2018-08-14T11:36:11.471Z,1006.10
2018-08-14T11:37:11.413Z,1006.08
2018-08-14T11:39:04.213Z,1006.07
2018-08-14T11:40:04.145Z,1006.04
2018-08-14T11:41:56.954Z,1006.12
2018-08-14T11:42:56.874Z,1006.13
2018-08-14T11:44:49.724Z,1006.15
2018-08-14T11:45:49.647Z,1006.10
2018-08-14T11:47:42.440Z,1006.03
2018-08-14T11:48:42.378Z,1006.12
2018-08-14T11:50:35.167Z,1006.11
2018-08-14T11:51:35.115Z,1006.14
2018-08-14T11:53:27.930Z,1006.08
2018-08-14T11:54:27.857Z,1006.09
2018-08-14T11:56:20.680Z,1006.08
2018-08-14T11:57:20.622Z,1006.17
2018-08-14T11:59:13.432Z,1006.12
2018-08-14T12:00:13.377Z,1006.15
2018-08-14T12:02:06.207Z,1006.15
2018-08-14T12:03:06.089Z,1006.14
2018-08-14T12:04:58.895Z,1006.21
2018-08-14T12:05:58.820Z,1006.20
2018-08-14T12:07:51.641Z,1006.25
2018-08-14T12:08:51.565Z,1006.26
2018-08-14T12:10:44.381Z,1006.27
2018-08-14T12:11:44.309Z,1006.22
2018-08-14T12:13:37.138Z,1006.25
2018-08-14T12:14:37.062Z,1006.25
2018-08-14T12:16:29.865Z,1006.23
2018-08-14T12:17:29.798Z,1006.22
2018-08-14T12:19:22.603Z,1006.28
2018-08-14T12:20:22.536Z,1006.24
2018-08-14T12:22:15.314Z,1006.30
2018-08-14T12:23:15.254Z,1006.29
2018-08-14T12:25:08.072Z,1006.33
2018-08-14T12:26:08.003Z,1006.31
2018-08-14T12:28:00.806Z,1006.28
2018-08-14T12:29:00.736Z,1006.33
2018-08-14T12:30:53.545Z,1006.33
2018-08-14T12:31:53.478Z,1006.34
2018-08-14T12:33:46.342Z,1006.35
2018-08-14T12:34:46.254Z,1006.28
2018-08-14T12:36:39.061Z,1006.37
2018-08-14T12:37:39.011Z,1006.36
2018-08-14T12:39:31.855Z,1006.19
2018-08-14T12:40:31.839Z,1006.32
2018-08-14T12:42:24.663Z,1006.32
2018-08-14T12:43:24.589Z,1006.41
2018-08-14T12:45:17.388Z,1006.41
2018-08-14T12:46:17.310Z,1006.42
2018-08-14T12:48:10.148Z,1006.37
2018-08-14T12:49:10.057Z,1006.39
2018-08-14T12:51:02.867Z,1006.45
2018-08-14T12:52:02.785Z,1006.45
2018-08-14T12:53:55.607Z,1006.50
2018-08-14T12:54:55.498Z,1006.48
2018-08-14T12:56:48.306Z,1006.51
2018-08-14T12:57:48.244Z,1006.57
2018-08-14T12:59:41.038Z,1006.57
2018-08-14T13:00:40.967Z,1006.58
2018-08-14T13:02:33.799Z,1006.60
2018-08-14T13:03:33.721Z,1006.61
2018-08-14T13:05:26.499Z,1006.62
2018-08-14T13:06:26.443Z,1006.65
2018-08-14T13:08:19.295Z,1006.64
2018-08-14T13:09:19.190Z,1006.59
2018-08-14T13:11:12.055Z,1006.59
2018-08-14T13:12:12.005Z,1006.59
2018-08-14T13:14:04.880Z,1006.62
2018-08-14T13:15:04.789Z,1006.64
2018-08-14T13:16:57.576Z,1006.58
2018-08-14T13:17:57.513Z,1006.56
2018-08-14T13:19:50.319Z,1006.59
2018-08-14T13:20:50.235Z,1006.59
2018-08-14T13:22:43.040Z,1006.51
2018-08-14T13:23:42.969Z,1006.49
2018-08-14T13:25:35.780Z,1006.48
2018-08-14T13:26:35.723Z,1006.49
2018-08-14T13:28:28.514Z,1006.46
2018-08-14T13:29:28.416Z,1006.41
2018-08-14T13:31:21.201Z,1006.42
2018-08-14T13:32:21.137Z,1006.44
2018-08-14T13:34:13.942Z,1006.43
2018-08-14T13:35:13.864Z,1006.46
2018-08-14T13:37:06.638Z,1006.47
2018-08-14T13:38:06.617Z,1006.47
2018-08-14T13:39:59.400Z,1006.39
2018-08-14T13:40:59.322Z,1006.38
2018-08-14T13:42:52.119Z,1006.35
2018-08-14T13:43:52.081Z,1006.35
2018-08-14T13:45:44.966Z,1006.30
2018-08-14T13:46:44.781Z,1006.29
2018-08-14T13:48:37.584Z,1006.30
2018-08-14T13:49:37.506Z,1006.35
2018-08-14T13:51:30.315Z,1006.32
2018-08-14T13:52:30.239Z,1006.29
2018-08-14T13:54:23.066Z,1006.34
2018-08-14T13:55:22.952Z,1006.32
2018-08-14T13:57:15.831Z,1006.35
2018-08-14T13:58:15.751Z,1006.36
2018-08-14T14:00:08.717Z,1006.30
2018-08-14T14:01:08.628Z,1006.36
2018-08-14T14:03:01.657Z,1006.38
2018-08-14T14:04:01.542Z,1006.36
2018-08-14T14:05:54.341Z,1006.37
2018-08-14T14:06:54.268Z,1006.29
2018-08-14T14:08:47.065Z,1006.32
2018-08-14T14:09:47.004Z,1006.36
2018-08-14T14:11:39.773Z,1006.34
2018-08-14T14:12:39.716Z,1006.36
2018-08-14T14:14:32.518Z,1006.37
2018-08-14T14:15:32.441Z,1006.37
2018-08-14T14:17:25.255Z,1006.32
2018-08-14T14:18:25.189Z,1006.37
2018-08-14T14:20:17.983Z,1006.38
2018-08-14T14:21:17.907Z,1006.36
2018-08-14T14:23:10.717Z,1006.41
2018-08-14T14:24:10.648Z,1006.43
2018-08-14T14:26:03.452Z,1006.47
2018-08-14T14:27:03.372Z,1006.45
2018-08-14T14:28:56.197Z,1006.40
2018-08-14T14:29:56.157Z,1006.43
2018-08-14T14:31:48.917Z,1006.40
2018-08-14T14:32:48.862Z,1006.41
2018-08-14T14:34:41.688Z,1006.39
2018-08-14T14:35:41.612Z,1006.41
2018-08-14T14:37:34.435Z,1006.36
2018-08-14T14:38:34.351Z,1006.32
2018-08-14T14:40:27.158Z,1006.35
2018-08-14T14:41:27.081Z,1006.38
2018-08-14T14:43:19.905Z,1006.34
2018-08-14T14:44:19.799Z,1006.38
2018-08-14T14:46:12.610Z,1006.30
2018-08-14T14:47:12.509Z,1006.34
2018-08-14T14:49:05.352Z,1006.33
2018-08-14T14:50:05.272Z,1006.29
2018-08-14T14:51:58.075Z,1006.30
2018-08-14T14:52:58.007Z,1006.32
2018-08-14T14:54:50.818Z,1006.31
2018-08-14T14:55:50.738Z,1006.32
2018-08-14T14:57:43.556Z,1006.31
2018-08-14T14:58:43.494Z,1006.37
2018-08-14T15:00:36.294Z,1006.43
2018-08-14T15:01:36.218Z,1006.47
2018-08-14T15:03:29.019Z,1006.42
2018-08-14T15:04:28.950Z,1006.37
2018-08-14T15:06:21.767Z,1006.43
2018-08-14T15:07:21.691Z,1006.37
2018-08-14T15:09:14.469Z,1006.44
2018-08-14T15:10:14.398Z,1006.37
2018-08-14T15:12:07.185Z,1006.45
2018-08-14T15:13:07.167Z,1006.41
2018-08-14T15:15:00.048Z,1006.50
2018-08-14T15:15:59.933Z,1006.43
2018-08-14T15:17:52.737Z,1006.48
2018-08-14T15:18:52.664Z,1006.43
2018-08-14T15:20:45.497Z,1006.44
2018-08-14T15:21:45.426Z,1006.47
2018-08-14T15:23:38.248Z,1006.40
2018-08-14T15:24:38.191Z,1006.51
2018-08-14T15:26:30.990Z,1006.40
2018-08-14T15:27:30.911Z,1006.39
2018-08-14T15:29:23.727Z,1006.41
2018-08-14T15:30:23.636Z,1006.38
2018-08-14T15:32:16.472Z,1006.44
2018-08-14T15:33:16.356Z,1006.48
2018-08-14T15:35:09.175Z,1006.55
2018-08-14T15:36:09.085Z,1006.56
2018-08-14T15:38:01.887Z,1006.55
2018-08-14T15:39:01.820Z,1006.52
2018-08-14T15:40:54.612Z,1006.55
2018-08-14T15:41:54.546Z,1006.56
2018-08-14T15:43:47.364Z,1006.49
2018-08-14T15:44:47.291Z,1006.50
2018-08-14T15:46:40.096Z,1006.51
2018-08-14T15:47:40.022Z,1006.56
2018-08-14T15:49:32.925Z,1006.47
2018-08-14T15:50:32.752Z,1006.49
2018-08-14T15:52:25.568Z,1006.49
2018-08-14T15:53:25.489Z,1006.49
2018-08-14T15:55:18.279Z,1006.51
2018-08-14T15:56:18.207Z,1006.43
2018-08-14T15:58:10.991Z,1006.48
2018-08-14T15:59:10.923Z,1006.39
2018-08-14T16:01:03.802Z,1006.45
2018-08-14T16:02:03.659Z,1006.37
2018-08-14T16:03:56.447Z,1006.43
2018-08-14T16:04:56.394Z,1006.44
2018-08-14T16:06:49.202Z,1006.49
2018-08-14T16:07:49.123Z,1006.49
2018-08-14T16:09:41.908Z,1006.53
2018-08-14T16:10:41.845Z,1006.52
2018-08-14T16:12:34.720Z,1006.58
2018-08-14T16:13:34.573Z,1006.57
2018-08-14T16:15:27.367Z,1006.66
2018-08-14T16:16:27.308Z,1006.62
2018-08-14T16:18:20.139Z,1006.73
2018-08-14T16:19:20.076Z,1006.63
2018-08-14T16:21:12.872Z,1006.73
2018-08-14T16:22:12.797Z,1006.78
2018-08-14T16:24:05.569Z,1006.85
2018-08-14T16:25:05.501Z,1006.88
2018-08-14T16:26:58.319Z,1006.86
2018-08-14T16:27:58.246Z,1006.86
2018-08-14T16:29:51.037Z,1006.81
2018-08-14T16:30:50.988Z,1006.83
2018-08-14T16:32:43.773Z,1006.80
2018-08-14T16:33:43.698Z,1006.79
2018-08-14T16:35:36.513Z,1006.81
2018-08-14T16:36:36.421Z,1006.82
2018-08-14T16:38:29.303Z,1006.86
2018-08-14T16:39:29.210Z,1006.82
2018-08-14T16:41:22.015Z,1006.85
2018-08-14T16:42:21.939Z,1006.84
2018-08-14T16:44:14.708Z,1006.83
2018-08-14T16:45:14.644Z,1006.85
2018-08-14T16:47:07.437Z,1006.85
2018-08-14T16:48:07.362Z,1006.78
2018-08-14T16:50:00.197Z,1006.78
2018-08-14T16:51:00.142Z,1006.76
2018-08-14T16:52:52.925Z,1006.84
2018-08-14T16:53:52.855Z,1006.79
2018-08-14T16:55:45.643Z,1006.78
2018-08-14T16:56:45.569Z,1006.85
2018-08-14T16:58:38.366Z,1006.80
2018-08-14T16:59:38.289Z,1006.83
2018-08-14T17:01:31.118Z,1006.86
2018-08-14T17:02:31.024Z,1006.86
2018-08-14T17:04:24.008Z,1006.87
2018-08-14T17:05:23.951Z,1006.91
2018-08-14T17:07:16.784Z,1006.91
2018-08-14T17:08:16.701Z,1006.89
2018-08-14T17:10:09.493Z,1006.91
2018-08-14T17:11:09.425Z,1006.91
2018-08-14T17:13:02.204Z,1006.93
2018-08-14T17:14:02.131Z,1006.91
2018-08-14T17:15:54.931Z,1006.86
2018-08-14T17:16:54.858Z,1006.90
2018-08-14T17:18:47.657Z,1006.89
2018-08-14T17:19:47.623Z,1006.84
2018-08-14T17:21:40.412Z,1006.94
2018-08-14T17:22:40.336Z,1006.94
2018-08-14T17:24:33.114Z,1006.95